KSHR/SHR METAR and TAF weather

Enter ICAO airport designator
Station Type Date Time Source
KSHR METAR 2019/06/26 15:53 UTC NOAA

KSHR 261553Z AUTO 09007KT 050V120 10SM CLR 23/12 A2997 RMK AO2 SLP121 T02280117


Station Type Date Time Source
KSHR Decoded METAR 2019/06/26 15:53 UTC NOAA

SHERIDAN COUNTY AIRPORT, WY, United States (KSHR) 44-46N 106-58W 1202M
Jun 26, 2019 - 11:53 AM EDT / 2019.06.26 1553 UTC
Wind: from the E (090 degrees) at 8 MPH (7 KT) (direction variable):0
Visibility: 10 mile(s):0
Sky conditions: clear
Temperature: 73.0 F (22.8 C)
Dew Point: 53.1 F (11.7 C)
Relative Humidity: 49%
Pressure (altimeter): 29.97 in. Hg (1014 hPa)
ob: KSHR 261553Z AUTO 09007KT 050V120 10SM CLR 23/12 A2997 RMK AO2 SLP121 T02280117
cycle: 16

Station Type Date Time Source
KSHR TAF 2019/06/26 12:27 UTC NOAA

TAF KSHR 261125Z 2612/2712 VRB04KT P6SM VCSH SCT080
FM261800 12011G20KT P6SM VCTS SCT100CB
FM262100 12010G17KT P6SM VCTS SCT060CB BKN120
FM270100 VRB06KT P6SM VCTS SCT060CB BKN120

Example: see airport list